Time;durP1;ratioP1;P1;durP2;ratioP2;P2;SDS_P1;SDS_P2;PMS_P1;PMS_P2;Temp;Humidity;BMP_temperature;BMP_pressure;BME280_temperature;BME280_humidity;BME280_pressure;Samples;Min_cycle;Max_cycle;Signal;HPM_P1;HPM_P2
2021/01/18 00:00:51;;;;;;;4.87;3.70;;;0.20;99.90;;;;;;2064504;28;20194;-71
2021/01/18 00:01:52;;;;;;;5.50;3.37;;;0.30;99.90;;;;;;2064353;28;20733;-71
2021/01/18 00:02:53;;;;;;;5.57;3.13;;;0.20;99.90;;;;;;2064416;28;20182;-71
2021/01/18 00:03:54;;;;;;;4.47;2.75;;;0.30;99.90;;;;;;2073054;28;20185;-71
2021/01/18 00:04:54;;;;;;;4.00;3.00;;;0.30;99.90;;;;;;2073081;28;20185;-71
2021/01/18 00:05:55;;;;;;;5.23;3.30;;;0.30;99.90;;;;;;2072821;28;20197;-71
2021/01/18 00:06:56;;;;;;;6.57;3.13;;;0.30;99.90;;;;;;2064316;28;20181;-71
2021/01/18 00:07:57;;;;;;;4.43;2.93;;;0.20;99.90;;;;;;2056324;28;20179;-71
2021/01/18 00:08:57;;;;;;;8.10;3.20;;;0.20;99.90;;;;;;2064473;28;20205;-71
2021/01/18 00:09:58;;;;;;;4.40;3.43;;;0.20;99.90;;;;;;2073053;28;20424;-71
2021/01/18 00:10:59;;;;;;;5.77;3.50;;;0.20;99.90;;;;;;2072713;28;20209;-70
2021/01/18 00:11:59;;;;;;;6.10;3.67;;;0.20;99.90;;;;;;2064163;28;20220;-71
2021/01/18 00:13:00;;;;;;;5.77;3.47;;;0.20;99.90;;;;;;2064407;28;20182;-71
2021/01/18 00:14:01;;;;;;;4.53;3.47;;;0.20;99.90;;;;;;2073029;28;20707;-71
2021/01/18 00:15:03;;;;;;;7.47;3.73;;;0.20;99.90;;;;;;2072859;28;20208;-71
2021/01/18 00:16:04;;;;;;;5.70;3.40;;;0.20;99.90;;;;;;2064178;28;20190;-72
2021/01/18 00:17:07;;;;;;;4.95;3.60;;;0.20;99.90;;;;;;2064522;28;20279;-71
2021/01/18 00:18:07;;;;;;;5.75;3.42;;;0.20;99.90;;;;;;2064321;28;20222;-71
2021/01/18 00:19:08;;;;;;;4.27;3.30;;;0.20;99.90;;;;;;2055938;28;20232;-71
2021/01/18 00:20:14;;;;;;;4.93;3.33;;;0.30;99.90;;;;;;2064291;28;20221;-71
2021/01/18 00:21:16;;;;;;;5.05;3.40;;;0.30;99.90;;;;;;2064081;28;20198;-71
2021/01/18 00:22:17;;;;;;;4.95;3.40;;;0.20;99.90;;;;;;2056279;28;20194;-71
2021/01/18 00:23:17;;;;;;;5.13;3.47;;;0.30;99.90;;;;;;2056236;28;20805;-71
2021/01/18 00:24:18;;;;;;;6.23;3.70;;;0.40;99.90;;;;;;2056296;28;20269;-71
2021/01/18 00:25:24;;;;;;;4.27;3.50;;;0.40;99.90;;;;;;2056248;28;20217;-71
2021/01/18 00:26:25;;;;;;;5.07;3.35;;;0.40;99.90;;;;;;2057207;28;20616;-70
2021/01/18 00:27:26;;;;;;;7.07;4.13;;;0.30;99.90;;;;;;2064140;28;20186;-71
2021/01/18 00:28:26;;;;;;;6.23;3.57;;;0.30;99.90;;;;;;2073097;28;20179;-71
2021/01/18 00:29:27;;;;;;;5.77;3.60;;;0.30;99.90;;;;;;2072966;28;20204;-71
2021/01/18 00:30:28;;;;;;;4.70;3.77;;;0.30;99.90;;;;;;2073019;28;20235;-71
2021/01/18 00:31:28;;;;;;;5.27;3.37;;;0.30;99.90;;;;;;2072681;28;20189;-71
2021/01/18 00:32:29;;;;;;;5.47;3.83;;;0.30;99.90;;;;;;2072894;28;20197;-71
2021/01/18 00:33:30;;;;;;;5.33;3.60;;;0.30;99.90;;;;;;2064351;28;20178;-71
2021/01/18 00:34:30;;;;;;;5.60;3.50;;;0.30;99.90;;;;;;2056270;28;20187;-71
2021/01/18 00:35:31;;;;;;;7.87;3.50;;;0.30;99.90;;;;;;2063944;28;20602;-71
2021/01/18 00:36:32;;;;;;;5.20;3.33;;;0.40;99.90;;;;;;2073030;28;20233;-72
2021/01/18 00:37:47;;;;;;;4.60;3.27;;;0.40;99.90;;;;;;2072866;28;20224;-71
2021/01/18 00:38:48;;;;;;;4.05;3.08;;;0.40;99.90;;;;;;2064314;28;20161;-71
2021/01/18 00:39:48;;;;;;;4.87;3.63;;;0.30;99.90;;;;;;2064125;28;20217;-71
2021/01/18 00:40:49;;;;;;;5.27;3.43;;;0.30;99.90;;;;;;2072900;28;20204;-71
2021/01/18 00:41:50;;;;;;;3.80;3.03;;;0.30;99.90;;;;;;2072911;28;20268;-71
2021/01/18 00:42:51;;;;;;;4.20;3.10;;;0.30;99.90;;;;;;2072887;28;20648;-71
2021/01/18 00:43:52;;;;;;;5.30;3.10;;;0.40;99.90;;;;;;2072867;28;20191;-71
2021/01/18 00:44:53;;;;;;;3.65;2.67;;;0.30;99.90;;;;;;2072936;28;20670;-73
2021/01/18 00:45:54;;;;;;;4.77;3.10;;;0.30;99.90;;;;;;2073012;28;20231;-70
2021/01/18 00:46:54;;;;;;;4.63;2.90;;;0.30;99.90;;;;;;2072998;28;20652;-71
2021/01/18 00:47:56;;;;;;;7.00;3.13;;;0.30;99.90;;;;;;2064165;28;20447;-72
2021/01/18 00:48:57;;;;;;;4.00;2.60;;;0.30;99.90;;;;;;2064019;28;20281;-71
2021/01/18 00:49:58;;;;;;;3.93;2.60;;;0.30;99.90;;;;;;2072819;28;20188;-71
2021/01/18 00:50:58;;;;;;;5.37;2.77;;;0.40;99.90;;;;;;2063911;28;20213;-71
2021/01/18 00:51:59;;;;;;;5.07;2.87;;;0.30;99.90;;;;;;2056046;28;20279;-71
2021/01/18 00:53:00;;;;;;;4.57;3.00;;;0.30;99.90;;;;;;2056093;28;20313;-71
2021/01/18 00:54:01;;;;;;;8.35;3.40;;;0.30;99.90;;;;;;2056068;28;20225;-71
2021/01/18 00:55:02;;;;;;;5.28;3.28;;;0.30;99.90;;;;;;2064286;28;20289;-71
2021/01/18 00:56:03;;;;;;;5.57;3.30;;;0.30;99.90;;;;;;2072833;28;20215;-71
2021/01/18 00:57:04;;;;;;;6.32;3.42;;;0.30;99.90;;;;;;2064251;28;20198;-71
2021/01/18 00:58:11;;;;;;;4.27;3.00;;;0.40;99.90;;;;;;2064323;28;20179;-71
2021/01/18 00:59:12;;;;;;;5.35;3.22;;;0.40;99.90;;;;;;2064091;28;20260;-71
2021/01/18 01:00:26;;;;;;;4.17;3.10;;;0.30;99.90;;;;;;2056067;28;20603;-71
2021/01/18 01:01:26;;;;;;;4.57;3.42;;;0.30;99.90;;;;;;2057784;28;20213;-71
2021/01/18 01:02:27;;;;;;;5.17;3.07;;;0.30;99.90;;;;;;2064138;28;20180;-74
2021/01/18 01:03:28;;;;;;;4.10;2.70;;;0.30;99.90;;;;;;2072872;28;20797;-71
2021/01/18 01:04:28;;;;;;;5.13;3.40;;;0.30;99.90;;;;;;2072831;28;20221;-72
2021/01/18 01:05:29;;;;;;;3.93;3.23;;;0.30;99.90;;;;;;2072914;28;20223;-71
2021/01/18 01:06:34;;;;;;;8.27;3.47;;;0.30;99.90;;;;;;2073028;28;20188;-71
2021/01/18 01:07:46;;;;;;;4.47;3.35;;;0.40;99.90;;;;;;2064332;28;20694;-71
2021/01/18 01:08:47;;;;;;;5.35;3.47;;;0.30;99.90;;;;;;2057837;28;20263;-71
2021/01/18 01:09:47;;;;;;;5.00;3.40;;;0.30;99.90;;;;;;2057141;28;20221;-71
2021/01/18 01:10:48;;;;;;;5.60;3.97;;;0.30;99.90;;;;;;2065700;28;20216;-72
2021/01/18 01:11:49;;;;;;;4.37;3.60;;;0.30;99.90;;;;;;2073897;28;20233;-71
2021/01/18 01:13:04;;;;;;;6.17;3.83;;;0.30;99.90;;;;;;2065816;28;20197;-71
2021/01/18 01:14:05;;;;;;;5.40;3.50;;;0.30;99.90;;;;;;2068204;28;20289;-72
2021/01/18 01:15:08;;;;;;;5.97;3.63;;;0.30;99.90;;;;;;2065809;28;20576;-71
2021/01/18 01:16:09;;;;;;;4.22;3.25;;;0.30;99.90;;;;;;2066223;28;20178;-71
2021/01/18 01:17:11;;;;;;;4.30;3.00;;;0.40;99.90;;;;;;2074399;28;20181;-71
2021/01/18 01:18:11;;;;;;;5.95;3.15;;;0.40;99.90;;;;;;2065748;28;20185;-72
2021/01/18 01:19:12;;;;;;;3.97;3.33;;;0.40;99.90;;;;;;2057548;28;20241;-71
2021/01/18 01:20:16;;;;;;;6.47;3.43;;;0.40;99.90;;;;;;2057692;28;20207;-71
2021/01/18 01:21:17;;;;;;;3.63;3.22;;;0.40;99.90;;;;;;2065646;28;20179;-71
2021/01/18 01:22:18;;;;;;;6.83;3.20;;;0.50;99.90;;;;;;2074491;28;20178;-71
2021/01/18 01:23:18;;;;;;;5.00;3.03;;;0.50;99.90;;;;;;2074415;28;20217;-72
2021/01/18 01:24:20;;;;;;;6.53;3.33;;;0.40;99.90;;;;;;2074310;28;20459;-71
2021/01/18 01:25:24;;;;;;;4.85;3.55;;;0.30;99.90;;;;;;2065522;28;20264;-71
2021/01/18 01:26:24;;;;;;;6.22;3.75;;;0.30;99.90;;;;;;2065855;28;20627;-71
2021/01/18 01:27:25;;;;;;;5.97;3.80;;;0.30;99.90;;;;;;2076204;28;20186;-71
2021/01/18 01:28:26;;;;;;;5.67;3.53;;;0.30;99.90;;;;;;2082622;28;20199;-71
2021/01/18 01:29:26;;;;;;;7.57;3.73;;;0.30;99.90;;;;;;2082333;28;20683;-71
2021/01/18 01:30:27;;;;;;;6.00;3.70;;;0.20;99.90;;;;;;2073550;28;20189;-71
2021/01/18 01:31:28;;;;;;;7.47;4.13;;;0.20;99.90;;;;;;2073270;28;20624;-71
2021/01/18 01:32:28;;;;;;;7.57;3.90;;;0.20;99.90;;;;;;2073417;28;20615;-71
2021/01/18 01:33:30;;;;;;;6.80;3.97;;;0.30;99.90;;;;;;2073512;28;20239;-74
2021/01/18 01:34:30;;;;;;;7.22;4.10;;;0.20;99.90;;;;;;2073605;28;20212;-71
2021/01/18 01:35:31;;;;;;;5.50;4.43;;;0.30;99.90;;;;;;2065322;28;20231;-72
2021/01/18 01:36:32;;;;;;;6.50;3.87;;;0.30;99.90;;;;;;2065516;28;20281;-71
2021/01/18 01:37:34;;;;;;;7.53;3.70;;;0.30;99.90;;;;;;2073476;28;20185;-71
2021/01/18 01:38:35;;;;;;;6.75;3.70;;;0.30;99.90;;;;;;2082301;28;20199;-71
2021/01/18 01:39:35;;;;;;;7.37;3.73;;;0.30;99.90;;;;;;2082328;28;20185;-72
2021/01/18 01:40:36;;;;;;;5.67;3.70;;;0.30;99.90;;;;;;2082356;28;20202;-71
2021/01/18 01:41:37;;;;;;;6.13;3.80;;;0.30;99.90;;;;;;2082069;28;20172;-71
2021/01/18 01:42:39;;;;;;;7.13;4.10;;;0.30;99.90;;;;;;2082341;28;20640;-71
2021/01/18 01:43:40;;;;;;;5.85;3.80;;;0.40;99.90;;;;;;2073483;28;20277;-71
2021/01/18 01:44:41;;;;;;;6.20;3.83;;;0.40;99.90;;;;;;2073602;28;20180;-72
2021/01/18 01:45:41;;;;;;;7.20;3.80;;;0.30;99.90;;;;;;2073781;28;20559;-71
2021/01/18 01:46:42;;;;;;;8.23;3.83;;;0.30;99.90;;;;;;2073949;28;20184;-71
2021/01/18 01:47:52;;;;;;;5.23;4.00;;;0.30;99.90;;;;;;2082555;28;20177;-71
2021/01/18 01:48:54;;;;;;;7.05;3.85;;;0.30;99.90;;;;;;2073677;28;20726;-71
2021/01/18 01:49:56;;;;;;;6.80;3.55;;;0.30;99.90;;;;;;2073864;28;20182;-71
2021/01/18 01:50:57;;;;;;;7.32;3.63;;;0.30;99.90;;;;;;2073441;28;20188;-71
2021/01/18 01:51:58;;;;;;;8.57;3.83;;;0.30;99.90;;;;;;2065608;28;20189;-71
2021/01/18 01:53:13;;;;;;;6.80;3.83;;;0.30;99.90;;;;;;2073909;28;20699;-72
2021/01/18 01:54:16;;;;;;;8.05;4.70;;;0.30;99.90;;;;;;2082825;28;20160;-71
2021/01/18 01:55:24;;;;;;;6.25;3.90;;;0.30;99.90;;;;;;2073523;28;20222;-71
2021/01/18 01:56:25;;;;;;;7.88;3.70;;;0.20;99.90;;;;;;2066826;28;20241;-71
2021/01/18 01:57:30;;;;;;;8.35;4.18;;;0.20;99.90;;;;;;2065721;28;20184;-71
2021/01/18 01:58:30;;;;;;;8.13;4.47;;;0.20;99.90;;;;;;2074366;28;20174;-71
2021/01/18 01:59:31;;;;;;;8.00;4.00;;;0.20;99.90;;;;;;2073901;28;20201;-71
2021/01/18 02:00:36;;;;;;;7.50;4.20;;;0.20;99.90;;;;;;2065668;28;20182;-71
2021/01/18 02:01:37;;;;;;;6.75;4.18;;;0.20;99.90;;;;;;2065757;28;20739;-71
2021/01/18 02:02:38;;;;;;;8.93;4.83;;;0.20;99.90;;;;;;2073841;28;20256;-71
2021/01/18 02:03:45;;;;;;;10.93;4.50;;;0.20;99.90;;;;;;2082242;28;20679;-71
2021/01/18 02:04:47;;;;;;;6.13;4.00;;;0.20;99.90;;;;;;2082076;28;20195;-71
2021/01/18 02:05:50;;;;;;;9.18;4.80;;;0.20;99.90;;;;;;2082253;28;20181;-71
2021/01/18 02:06:51;;;;;;;6.97;4.28;;;0.20;99.90;;;;;;2082002;28;20180;-71
2021/01/18 02:07:59;;;;;;;8.70;4.00;;;0.20;99.90;;;;;;2082208;28;20226;-71
2021/01/18 02:09:00;;;;;;;6.45;3.95;;;0.20;99.90;;;;;;2073333;28;20196;-70
2021/01/18 02:10:00;;;;;;;6.50;4.10;;;0.10;99.90;;;;;;2065169;28;20220;-71
2021/01/18 02:11:02;;;;;;;9.20;4.43;;;0.10;99.90;;;;;;2073013;28;20173;-71
2021/01/18 02:12:03;;;;;;;7.13;4.30;;;0.20;99.90;;;;;;2065064;28;20725;-71
2021/01/18 02:13:43;;;;;;;7.80;4.57;;;0.20;99.90;;;;;;2057172;28;20182;-71
2021/01/18 02:15:40;;;;;;;7.88;4.68;;;0.20;99.90;;;;;;2046904;28;20662;-71
2021/01/18 02:17:06;;;;;;;7.05;4.38;;;0.20;99.90;;;;;;2068475;28;20283;-70
2021/01/18 02:18:41;;;;;;;8.35;4.72;;;0.10;99.90;;;;;;2073326;28;20170;-71
2021/01/18 02:20:22;;;;;;;11.13;4.93;;;0.10;99.90;;;;;;2078083;28;20202;-71
2021/01/18 02:22:05;;;;;;;8.73;4.65;;;0.10;99.90;;;;;;2072963;28;20259;-70
2021/01/18 02:23:38;;;;;;;9.13;4.40;;;0.10;99.90;;;;;;2079500;28;20615;-71
2021/01/18 02:25:00;;;;;;;6.03;3.85;;;0.20;99.90;;;;;;2073311;28;20178;-70
2021/01/18 02:26:28;;;;;;;7.97;3.80;;;0.20;99.90;;;;;;2075694;28;20195;-71
2021/01/18 02:27:37;;;;;;;11.43;4.75;;;0.20;99.90;;;;;;2073327;28;20188;-70
2021/01/18 02:29:22;;;;;;;6.15;4.53;;;0.20;99.90;;;;;;2074288;28;20182;-70
2021/01/18 02:30:56;;;;;;;9.00;4.38;;;0.20;99.90;;;;;;2080888;28;20196;-71
2021/01/18 02:32:33;;;;;;;9.35;4.57;;;0.10;99.90;;;;;;2072927;28;20665;-70
2021/01/18 02:34:19;;;;;;;10.23;4.00;;;0.10;99.90;;;;;;2069708;28;20659;-70
2021/01/18 02:35:34;;;;;;;7.80;4.00;;;0.20;99.90;;;;;;2079488;28;20577;-70
2021/01/18 02:36:54;;;;;;;7.85;3.85;;;0.10;99.90;;;;;;2081695;28;20674;-71
2021/01/18 02:38:06;;;;;;;6.03;3.67;;;0.10;99.90;;;;;;2073194;28;20173;-70
2021/01/18 02:39:36;;;;;;;7.57;3.20;;;0.10;99.90;;;;;;2066446;28;20268;-71
2021/01/18 02:40:56;;;;;;;6.57;3.70;;;0.20;99.90;;;;;;2077166;28;20676;-72
2021/01/18 02:42:06;;;;;;;11.30;4.15;;;0.20;99.90;;;;;;2073339;28;20179;-71
2021/01/18 02:43:14;;;;;;;6.25;3.20;;;0.10;99.90;;;;;;2066705;28;20174;-70
2021/01/18 02:44:19;;;;;;;5.10;3.35;;;0.20;99.90;;;;;;2073280;28;20178;-71
2021/01/18 02:45:22;;;;;;;8.15;4.35;;;0.10;99.90;;;;;;2066216;28;20177;-70
2021/01/18 02:46:25;;;;;;;8.23;4.45;;;0.10;99.90;;;;;;2065326;28;20614;-70
2021/01/18 02:47:30;;;;;;;6.72;3.80;;;0.10;99.90;;;;;;2065329;28;20186;-70
2021/01/18 02:48:31;;;;;;;10.65;4.30;;;0.10;99.90;;;;;;2073625;28;20223;-70
2021/01/18 02:49:33;;;;;;;7.80;4.10;;;0.10;99.90;;;;;;2073076;28;20738;-71
2021/01/18 02:50:36;;;;;;;10.68;4.70;;;0.20;99.90;;;;;;2065091;28;20216;-71
2021/01/18 02:51:45;;;;;;;9.40;4.13;;;0.20;99.90;;;;;;2073362;28;20264;-70
2021/01/18 02:52:46;;;;;;;8.85;4.78;;;0.20;99.90;;;;;;2064696;28;20182;-70
2021/01/18 02:53:59;;;;;;;9.40;4.60;;;0.20;99.90;;;;;;2065137;28;20189;-71
2021/01/18 02:55:00;;;;;;;5.90;4.13;;;0.20;99.90;;;;;;2081654;28;20624;-70
2021/01/18 02:56:00;;;;;;;8.10;4.17;;;0.20;99.90;;;;;;2081629;28;20187;-71
2021/01/18 02:57:05;;;;;;;7.37;4.40;;;0.20;99.90;;;;;;2072827;28;20710;-71
2021/01/18 02:58:09;;;;;;;10.55;4.65;;;0.20;99.90;;;;;;2073454;28;20247;-70
2021/01/18 02:59:14;;;;;;;10.95;4.47;;;0.20;99.90;;;;;;2072729;28;20212;-71
2021/01/18 03:00:23;;;;;;;12.02;4.45;;;0.20;99.90;;;;;;2065358;28;20177;-71
2021/01/18 03:02:00;;;;;;;9.48;4.38;;;0.20;99.90;;;;;;2074261;28;20169;-71
2021/01/18 03:03:17;;;;;;;6.68;4.07;;;0.20;99.90;;;;;;2081553;28;20225;-70
2021/01/18 03:04:45;;;;;;;7.15;4.45;;;0.20;99.90;;;;;;2081530;28;20704;-71
2021/01/18 03:06:16;;;;;;;8.45;4.03;;;0.20;99.90;;;;;;2072895;28;20180;-70
2021/01/18 03:07:56;;;;;;;7.57;3.83;;;0.20;99.90;;;;;;2068775;28;20231;-71
2021/01/18 03:09:15;;;;;;;8.68;4.22;;;0.20;99.90;;;;;;2053221;28;20217;-72
2021/01/18 03:10:26;;;;;;;5.78;4.07;;;0.20;99.90;;;;;;2073048;28;20539;-71
2021/01/18 03:11:35;;;;;;;8.85;4.15;;;0.20;99.90;;;;;;2065728;28;20195;-71
2021/01/18 03:13:05;;;;;;;8.07;4.28;;;0.20;99.90;;;;;;2065767;28;20264;-71
2021/01/18 03:14:16;;;;;;;11.68;4.55;;;0.20;99.90;;;;;;2051971;28;20212;-71
2021/01/18 03:15:20;;;;;;;8.48;4.97;;;0.20;99.90;;;;;;2074053;28;20209;-71
2021/01/18 03:16:28;;;;;;;6.15;3.53;;;0.20;99.90;;;;;;2072829;28;20256;-71
2021/01/18 03:17:30;;;;;;;9.40;4.47;;;0.20;99.90;;;;;;2073845;28;20170;-71
2021/01/18 03:18:33;;;;;;;8.98;3.97;;;0.20;99.90;;;;;;2072612;28;20188;-71
2021/01/18 03:19:44;;;;;;;9.15;3.83;;;0.20;99.90;;;;;;2073117;28;20189;-70
2021/01/18 03:20:46;;;;;;;8.23;4.20;;;0.20;99.90;;;;;;2072743;28;20176;-70
2021/01/18 03:21:47;;;;;;;10.05;4.20;;;0.20;99.90;;;;;;2072655;28;20217;-70
2021/01/18 03:22:48;;;;;;;6.78;4.30;;;0.20;99.90;;;;;;2072803;28;20643;-73
2021/01/18 03:23:49;;;;;;;5.03;3.90;;;0.20;99.90;;;;;;2064658;28;20204;-70
2021/01/18 03:24:49;;;;;;;9.47;4.47;;;0.20;99.90;;;;;;2072709;28;20185;-70
2021/01/18 03:25:55;;;;;;;9.50;4.47;;;0.20;99.90;;;;;;2072588;28;20643;-71
2021/01/18 03:27:03;;;;;;;5.88;3.83;;;0.20;99.90;;;;;;2065473;28;20297;-70
2021/01/18 03:28:04;;;;;;;10.05;4.50;;;0.10;99.90;;;;;;2071297;28;20177;-70
2021/01/18 03:29:04;;;;;;;8.60;3.80;;;0.10;99.90;;;;;;2070815;28;20702;-70
2021/01/18 03:30:06;;;;;;;7.57;3.97;;;0.10;99.90;;;;;;2081511;28;20188;-70
2021/01/18 03:31:07;;;;;;;6.07;3.75;;;0.10;99.90;;;;;;2072399;28;20196;-70
2021/01/18 03:32:09;;;;;;;9.57;4.10;;;0.10;99.90;;;;;;2063777;28;20252;-70
2021/01/18 03:33:10;;;;;;;7.95;4.15;;;0.10;99.90;;;;;;2064725;28;20356;-70
2021/01/18 03:34:11;;;;;;;7.90;3.90;;;0.10;99.90;;;;;;2072768;28;20197;-70
2021/01/18 03:35:11;;;;;;;10.73;4.20;;;0.10;99.90;;;;;;2081415;28;21022;-69
2021/01/18 03:36:12;;;;;;;6.90;4.23;;;0.10;99.90;;;;;;2072402;28;20220;-70
2021/01/18 03:37:13;;;;;;;9.93;4.30;;;0.10;99.90;;;;;;2072715;28;20188;-70
2021/01/18 03:38:13;;;;;;;8.53;4.33;;;0.10;99.90;;;;;;2072338;28;20178;-70
2021/01/18 03:39:14;;;;;;;10.60;4.53;;;0.00;99.90;;;;;;2072347;28;20197;-73
2021/01/18 03:40:15;;;;;;;8.00;4.20;;;0.00;99.90;;;;;;2072614;28;20185;-70
2021/01/18 03:41:19;;;;;;;10.10;4.77;;;0.00;99.90;;;;;;2064373;28;20197;-70
2021/01/18 03:42:19;;;;;;;9.57;4.20;;;0.00;99.90;;;;;;2072993;28;20197;-70
2021/01/18 03:43:21;;;;;;;6.53;4.40;;;0.00;99.90;;;;;;2081353;28;20202;-71
2021/01/18 03:44:22;;;;;;;9.85;4.55;;;0.10;99.90;;;;;;2081242;28;20180;-70
2021/01/18 03:45:26;;;;;;;7.63;3.97;;;0.10;99.90;;;;;;2081371;28;20211;-70
2021/01/18 03:46:26;;;;;;;7.15;3.70;;;0.00;99.90;;;;;;2072523;28;20181;-70
2021/01/18 03:47:27;;;;;;;9.87;4.80;;;0.00;99.90;;;;;;2064369;28;20185;-71
2021/01/18 03:48:28;;;;;;;6.27;4.13;;;0.00;99.90;;;;;;2064397;28;20192;-70
2021/01/18 03:49:29;;;;;;;8.10;4.33;;;0.00;99.90;;;;;;2072422;28;20227;-70
2021/01/18 03:50:29;;;;;;;12.67;4.77;;;0.00;99.90;;;;;;2081401;28;20180;-70
2021/01/18 03:51:30;;;;;;;11.33;4.67;;;0.00;99.90;;;;;;2081009;28;20237;-71
2021/01/18 03:52:31;;;;;;;9.33;4.20;;;0.00;99.90;;;;;;2081285;28;20592;-70
2021/01/18 03:53:32;;;;;;;9.20;4.50;;;0.10;99.90;;;;;;2072337;28;20180;-71
2021/01/18 03:54:32;;;;;;;11.00;4.73;;;0.10;99.90;;;;;;2072566;28;20185;-70
2021/01/18 03:55:33;;;;;;;9.80;4.40;;;0.10;99.90;;;;;;2072380;28;20679;-70
2021/01/18 03:56:41;;;;;;;11.25;5.07;;;0.10;99.90;;;;;;2064401;28;20186;-70
2021/01/18 03:57:45;;;;;;;9.38;4.38;;;0.10;99.90;;;;;;2073264;28;20185;-71
2021/01/18 03:58:46;;;;;;;7.35;4.35;;;0.00;99.90;;;;;;2081300;28;20267;-70
2021/01/18 03:59:47;;;;;;;8.03;4.43;;;0.00;99.90;;;;;;2081211;28;20176;-70
2021/01/18 04:00:47;;;;;;;7.60;4.53;;;0.00;99.90;;;;;;2081304;28;20176;-70
2021/01/18 04:01:48;;;;;;;8.60;4.17;;;0.00;99.90;;;;;;2072261;28;20185;-70
2021/01/18 04:02:51;;;;;;;9.73;4.93;;;0.00;99.90;;;;;;2072586;28;20288;-70
2021/01/18 04:03:51;;;;;;;7.43;4.32;;;0.00;99.90;;;;;;2081218;28;20254;-70
2021/01/18 04:04:52;;;;;;;10.50;4.30;;;0.00;99.90;;;;;;2081243;28;20608;-70
2021/01/18 04:05:53;;;;;;;8.17;3.93;;;0.00;99.90;;;;;;2081035;28;20214;-70
2021/01/18 04:06:53;;;;;;;9.80;3.90;;;0.00;99.90;;;;;;2081188;28;20195;-70
2021/01/18 04:07:55;;;;;;;7.97;3.83;;;0.00;99.90;;;;;;2081067;28;20176;-70
2021/01/18 04:08:55;;;;;;;8.85;5.28;;;0.00;99.90;;;;;;2072358;28;20287;-70
2021/01/18 04:09:56;;;;;;;7.83;4.40;;;0.00;99.90;;;;;;2072410;28;20612;-71
2021/01/18 04:10:57;;;;;;;9.93;4.63;;;0.00;99.90;;;;;;2080973;28;20249;-70
2021/01/18 04:11:57;;;;;;;7.90;3.83;;;0.00;99.90;;;;;;2081115;28;20172;-71
2021/01/18 04:12:58;;;;;;;9.47;4.33;;;0.00;99.90;;;;;;2081228;28;20207;-71
2021/01/18 04:13:59;;;;;;;7.20;4.60;;;0.00;99.90;;;;;;2064188;28;20217;-70
2021/01/18 04:15:03;;;;;;;9.82;4.40;;;0.00;99.90;;;;;;2064553;28;20202;-71
2021/01/18 04:16:04;;;;;;;6.47;4.30;;;0.10;99.90;;;;;;2081194;28;20207;-71
2021/01/18 04:17:05;;;;;;;13.45;4.70;;;0.10;99.90;;;;;;2081265;28;20189;-71
2021/01/18 04:18:05;;;;;;;7.93;4.50;;;0.10;99.90;;;;;;2081056;28;20279;-71
2021/01/18 04:19:06;;;;;;;9.93;4.33;;;0.00;99.90;;;;;;2081065;28;20244;-71
2021/01/18 04:20:09;;;;;;;7.90;4.20;;;0.10;99.90;;;;;;2072461;28;20205;-71
2021/01/18 04:21:09;;;;;;;7.32;4.30;;;0.00;99.90;;;;;;2072558;28;20523;-71
2021/01/18 04:22:10;;;;;;;8.73;4.47;;;0.00;99.90;;;;;;2081358;28;20183;-71
2021/01/18 04:23:11;;;;;;;8.07;4.53;;;0.00;99.90;;;;;;2081183;28;20589;-71
2021/01/18 04:24:11;;;;;;;10.23;4.67;;;0.00;99.90;;;;;;2081280;28;20172;-71
2021/01/18 04:25:14;;;;;;;8.60;4.23;;;0.00;99.90;;;;;;2081232;28;20194;-71
2021/01/18 04:26:15;;;;;;;8.25;4.53;;;0.00;99.90;;;;;;2072520;28;20188;-71
2021/01/18 04:27:16;;;;;;;11.23;4.67;;;0.00;99.90;;;;;;2064254;28;20673;-71
2021/01/18 04:28:16;;;;;;;7.63;4.37;;;0.10;99.90;;;;;;2072617;28;20558;-72
2021/01/18 04:29:17;;;;;;;7.47;4.20;;;0.00;99.90;;;;;;2081421;28;20300;-71
2021/01/18 04:30:20;;;;;;;7.00;4.23;;;0.00;99.90;;;;;;2081049;28;20259;-71
2021/01/18 04:31:21;;;;;;;9.63;5.13;;;0.00;99.90;;;;;;2072316;28;20189;-71
2021/01/18 04:32:22;;;;;;;13.87;4.83;;;0.10;99.90;;;;;;2072363;28;20185;-72
2021/01/18 04:33:25;;;;;;;11.33;5.27;;;0.10;99.90;;;;;;2081313;28;20180;-72
2021/01/18 04:34:26;;;;;;;9.43;4.70;;;0.10;99.90;;;;;;2064185;28;20182;-70
2021/01/18 04:35:28;;;;;;;6.73;4.40;;;0.10;99.90;;;;;;2064086;28;20205;-70
2021/01/18 04:36:38;;;;;;;8.38;4.00;;;0.10;99.90;;;;;;2072419;28;20181;-70
2021/01/18 04:37:39;;;;;;;7.38;4.22;;;0.10;99.90;;;;;;2072555;28;20204;-70
2021/01/18 04:38:39;;;;;;;7.07;4.20;;;0.10;99.90;;;;;;2072206;28;20240;-69
2021/01/18 04:39:40;;;;;;;6.33;4.00;;;0.10;99.90;;;;;;2072436;28;20550;-69
2021/01/18 04:40:42;;;;;;;8.33;4.10;;;0.00;99.90;;;;;;2072109;28;20187;-70
2021/01/18 04:41:45;;;;;;;10.52;4.65;;;0.00;99.90;;;;;;2080890;28;20245;-70
2021/01/18 04:42:46;;;;;;;7.20;3.78;;;0.00;99.90;;;;;;2072278;28;20182;-69
2021/01/18 04:43:47;;;;;;;10.25;4.43;;;-0.10;99.90;;;;;;2065200;28;20201;-69
2021/01/18 04:44:48;;;;;;;8.97;4.87;;;-0.10;99.90;;;;;;2066060;28;20623;-71
2021/01/18 04:45:50;;;;;;;10.97;4.80;;;0.00;99.90;;;;;;2074105;28;20865;-70
2021/01/18 04:46:53;;;;;;;8.23;3.92;;;0.00;99.90;;;;;;2082818;28;20844;-70
2021/01/18 04:47:57;;;;;;;9.07;4.20;;;0.00;99.90;;;;;;2073987;28;20192;-70
2021/01/18 04:48:59;;;;;;;6.72;3.60;;;0.00;99.90;;;;;;2065916;28;20202;-71
2021/01/18 04:50:01;;;;;;;6.20;3.53;;;0.00;99.90;;;;;;2074085;28;20647;-71
2021/01/18 04:51:01;;;;;;;7.45;3.67;;;0.00;99.90;;;;;;2082449;28;20263;-71
2021/01/18 04:52:11;;;;;;;6.73;3.60;;;0.00;99.90;;;;;;2082649;28;20656;-70
2021/01/18 04:53:17;;;;;;;5.75;3.40;;;0.00;99.90;;;;;;2073924;28;20180;-71
2021/01/18 04:54:23;;;;;;;8.00;4.07;;;0.00;99.90;;;;;;2087290;23;20592;-57
2021/01/18 04:56:02;;;;;;;6.03;4.35;;;0.00;99.90;;;;;;2089803;28;20729;-59
2021/01/18 04:57:20;;;;;;;5.35;3.40;;;0.00;99.90;;;;;;2090426;28;20171;-57
2021/01/18 04:58:29;;;;;;;3.83;3.13;;;0.00;99.90;;;;;;2089559;28;20628;-57
2021/01/18 04:59:45;;;;;;;8.38;3.42;;;0.00;99.90;;;;;;2089639;28;20200;-60
2021/01/18 05:00:51;;;;;;;4.95;2.92;;;-0.10;99.90;;;;;;2090210;28;20568;-58
2021/01/18 05:02:13;;;;;;;6.40;2.90;;;-0.10;99.90;;;;;;2090409;28;20176;-59
2021/01/18 05:03:19;;;;;;;3.90;2.50;;;-0.10;99.90;;;;;;2090484;28;20175;-58
2021/01/18 05:04:29;;;;;;;5.53;3.22;;;-0.10;99.90;;;;;;2090256;28;20563;-59
2021/01/18 05:05:30;;;;;;;7.30;3.38;;;-0.10;99.90;;;;;;2090377;28;20168;-58
2021/01/18 05:06:43;;;;;;;7.28;2.70;;;-0.20;99.90;;;;;;2090366;28;20199;-59
2021/01/18 05:08:02;;;;;;;5.30;3.10;;;-0.20;99.90;;;;;;2090354;28;20226;-59
2021/01/18 05:09:29;;;;;;;4.53;2.45;;;-0.20;99.90;;;;;;2090249;28;20667;-58
2021/01/18 05:10:31;;;;;;;6.97;3.08;;;-0.20;99.90;;;;;;2090311;28;20204;-58
2021/01/18 05:11:34;;;;;;;6.07;2.55;;;-0.20;99.90;;;;;;2090187;28;20210;-58
2021/01/18 05:12:40;;;;;;;7.05;3.00;;;-0.20;99.90;;;;;;2090229;28;20188;-59
2021/01/18 05:13:42;;;;;;;4.47;2.88;;;-0.20;99.90;;;;;;2090328;28;20179;-58
2021/01/18 05:14:43;;;;;;;5.45;2.80;;;-0.20;99.90;;;;;;2090155;28;20234;-57
2021/01/18 05:15:46;;;;;;;4.10;2.33;;;-0.20;99.90;;;;;;2089636;28;20318;-58
2021/01/18 05:16:58;;;;;;;4.45;2.58;;;-0.20;99.90;;;;;;2089685;28;20196;-58
2021/01/18 05:18:06;;;;;;;7.40;3.17;;;-0.30;99.90;;;;;;2090154;28;20183;-58
2021/01/18 05:19:12;;;;;;;6.38;2.65;;;-0.30;99.90;;;;;;2090288;28;20190;-59
2021/01/18 05:20:19;;;;;;;5.03;2.75;;;-0.20;99.90;;;;;;2094143;28;20624;-59
2021/01/18 05:21:19;;;;;;;5.38;2.60;;;-0.20;99.90;;;;;;2098613;28;20422;-58
2021/01/18 05:22:20;;;;;;;5.50;2.53;;;-0.20;99.90;;;;;;2098707;28;20178;-59
2021/01/18 05:23:21;;;;;;;4.70;2.60;;;-0.10;99.90;;;;;;2098272;28;20660;-58
2021/01/18 05:24:22;;;;;;;5.40;2.70;;;-0.10;99.90;;;;;;2098552;28;20202;-58
2021/01/18 05:25:23;;;;;;;7.45;3.03;;;-0.10;99.90;;;;;;2098554;28;20190;-59
2021/01/18 05:26:26;;;;;;;6.15;2.90;;;-0.10;99.90;;;;;;2098533;28;20672;-59
2021/01/18 05:27:27;;;;;;;4.30;2.92;;;-0.10;99.90;;;;;;2098387;28;20184;-59
2021/01/18 05:28:27;;;;;;;4.53;2.70;;;-0.10;99.90;;;;;;2098496;28;20179;-59
2021/01/18 05:29:33;;;;;;;4.27;2.97;;;-0.10;99.90;;;;;;2098388;28;20664;-57
2021/01/18 05:30:42;;;;;;;5.28;2.72;;;-0.10;99.90;;;;;;2098557;28;20176;-58
2021/01/18 05:31:43;;;;;;;5.35;3.70;;;-0.20;99.90;;;;;;2098321;28;20187;-58
2021/01/18 05:32:43;;;;;;;4.50;3.17;;;-0.30;99.90;;;;;;2098460;28;20248;-59
2021/01/18 05:33:44;;;;;;;4.83;3.13;;;-0.30;99.90;;;;;;2098201;28;20677;-58
2021/01/18 05:34:44;;;;;;;8.40;3.30;;;-0.30;99.90;;;;;;2098297;28;20369;-58
2021/01/18 05:35:48;;;;;;;4.87;3.40;;;-0.30;99.90;;;;;;2098165;28;20253;-58
2021/01/18 05:36:49;;;;;;;4.80;3.33;;;-0.30;99.90;;;;;;2098318;28;20659;-59
2021/01/18 05:38:10;;;;;;;4.68;3.30;;;-0.30;99.90;;;;;;2098184;28;20187;-58
2021/01/18 05:39:14;;;;;;;7.40;3.08;;;-0.20;99.90;;;;;;2097764;28;20194;-58
2021/01/18 05:40:20;;;;;;;4.35;3.15;;;-0.30;99.90;;;;;;2097557;28;20288;-59
2021/01/18 05:41:29;;;;;;;6.40;3.42;;;-0.20;99.90;;;;;;2097979;28;20656;-59
2021/01/18 05:42:30;;;;;;;5.03;3.45;;;-0.20;99.90;;;;;;2098142;28;20726;-60
2021/01/18 05:43:34;;;;;;;6.70;3.10;;;-0.20;99.90;;;;;;2098464;28;20247;-59